Sea Breeze — JD4225 — position and weather

sailwx.info

Track history (hours):
 
Tides and Currents Weather Stations Pressure Air Temp Water Temp Dewpoint Dewpoint Depression Visibility Wind Speed Wind Dir Waves Ship Positions

Sea Breeze

Last reported at 2017-Oct-18 06:24 UTC. Time now 2017-Oct-18 16:33 UTC.
Position N 35°25' E 139°38'.

Length 35 m; draft 3.1 m.

Type: Tug. MMSI: 431009818.

Date/timePositionNaut miles runAvg speedWind from/ knotsBaromVisibWave heightAir tempDewpointWater temp
2017-Oct-18 06:24N 35°25' E 139°38'1 3.4
2017-Oct-18 06:00N 35°24' E 139°40'1 2.4
2017-Oct-18 05:30N 35°25' E 139°38'0 0.0
2017-Oct-18 05:01N 35°25' E 139°38'1 2.5
2017-Oct-18 04:31N 35°24' E 139°40'1 2.9
2017-Oct-18 04:00N 35°23' E 139°41'3 0.6
2017-Oct-17 23:27N 35°24' E 139°38'0 0.2
2017-Oct-17 21:29N 35°25' E 139°38'0 0.0
2017-Oct-17 21:00N 35°25' E 139°38'0 0.0
2017-Oct-17 13:28N 35°25' E 139°38'0 0.4
2017-Oct-17 13:00N 35°25' E 139°39'0 0.1
2017-Oct-17 12:30N 35°25' E 139°39'0 0.3
2017-Oct-17 12:00N 35°25' E 139°38'0 0.0
2017-Oct-17 11:30N 35°25' E 139°38'0 0.0
2017-Oct-17 06:58N 35°25' E 139°38'0 0.7
2017-Oct-17 06:30N 35°24' E 139°38'0 0.0
2017-Oct-17 00:40N 35°24' E 139°38'1 7.3
2017-Oct-17 00:31N 35°24' E 139°39'1 1.6
2017-Oct-17 00:00N 35°25' E 139°39'2 3.6
2017-Oct-16 23:30N 35°24' E 139°40'1 1.9
2017-Oct-16 23:00N 35°23' E 139°41'3 1.8
2017-Oct-16 21:27N 35°25' E 139°38'0 0.0
2017-Oct-16 21:01N 35°25' E 139°38'0 0.0
2017-Oct-16 06:56N 35°25' E 139°38'0 0.0
2017-Oct-15 23:16N 35°24' E 139°38'1 4.9
2017-Oct-15 23:01N 35°24' E 139°40'1 0.7
2017-Oct-15 21:29N 35°25' E 139°38'0 0.0
2017-Oct-15 21:01N 35°25' E 139°38'0 0.0
2017-Oct-15 06:53N 35°25' E 139°38'0 0.2
2017-Oct-15 06:31N 35°25' E 139°38'0 0.0
2017-Oct-15 02:41N 35°25' E 139°38'1 5.5
2017-Oct-15 02:31N 35°24' E 139°39'1 1.2
2017-Oct-15 02:00N 35°25' E 139°39'0 0.1
2017-Oct-15 01:31N 35°25' E 139°39'0 0.1
2017-Oct-14 21:29N 35°25' E 139°38'0 0.0
2017-Oct-14 21:00N 35°25' E 139°38'0 0.0
2017-Oct-14 06:56N 35°25' E 139°38'0 0.7
2017-Oct-14 06:30N 35°24' E 139°38'0 0.0
2017-Oct-14 01:00N 35°24' E 139°38'0 0.1
2017-Oct-13 21:30N 35°25' E 139°38'0 0.0
2017-Oct-13 21:00N 35°25' E 139°38'0 0.0
2017-Oct-13 09:50N 35°25' E 139°38'0 0.3
2017-Oct-13 09:30N 35°25' E 139°38'0 0.4
2017-Oct-13 09:00N 35°25' E 139°39'1 0.1
2017-Oct-13 03:31N 35°24' E 139°38'0 0.0
2017-Oct-13 03:30N 35°24' E 139°38'1 1.6
2017-Oct-13 03:00N 35°25' E 139°39'0 0.0
2017-Oct-13 02:30N 35°25' E 139°39'0 0.1
2017-Oct-13 02:01N 35°25' E 139°39'0 0.1
2017-Oct-13 01:31N 35°25' E 139°39'1 2.2
2017-Oct-13 01:00N 35°24' E 139°40'1 2.9
2017-Oct-13 00:30N 35°23' E 139°41'0 0.7
2017-Oct-13 00:00N 35°23' E 139°41'3 5.5
2017-Oct-12 23:30N 35°24' E 139°38'0 0.6
2017-Oct-12 23:00N 35°25' E 139°38'0 0.0
2017-Oct-12 21:27N 35°25' E 139°38'0 0.0
2017-Oct-12 21:00N 35°25' E 139°38'0 0.0
2017-Oct-12 06:54N 35°25' E 139°38'0 0.0
2017-Oct-11 23:18N 35°24' E 139°38'1 3.6
2017-Oct-11 23:00N 35°25' E 139°39'1 0.5
2017-Oct-11 21:28N 35°25' E 139°38'0 0.0
2017-Oct-11 21:00N 35°25' E 139°38'0 0.0
2017-Oct-10 23:05N 35°24' E 139°38'0 0.2
2017-Oct-10 21:26N 35°25' E 139°38'0 0.0
2017-Oct-10 06:56N 35°25' E 139°38'0 0.7
2017-Oct-10 06:30N 35°24' E 139°38'0 0.0
2017-Oct-09 23:27N 35°24' E 139°38'1 2.4
2017-Oct-09 23:00N 35°25' E 139°39'1 0.5
2017-Oct-09 21:29N 35°25' E 139°38'0 0.0
2017-Oct-09 06:56N 35°25' E 139°39'0 0.0
2017-Oct-09 02:27N 35°25' E 139°38'0 1.0
2017-Oct-09 01:59N 35°25' E 139°39'0 0.3
2017-Oct-09 00:27N 35°24' E 139°39'2 4.0
2017-Oct-08 23:57N 35°23' E 139°42'1 1.5
2017-Oct-08 23:22N 35°23' E 139°41'3 1.4
2017-Oct-08 21:28N 35°25' E 139°38'0 0.0
2017-Oct-08 21:00N 35°25' E 139°38'0 0.0
2017-Oct-08 07:14N 35°25' E 139°38'1 4.3
2017-Oct-08 07:01N 35°24' E 139°40'0 0.7
2017-Oct-08 06:30N 35°25' E 139°39'  
Track history (hours):
 
Tides and Currents Weather Stations Pressure Air Temp Water Temp Dewpoint Dewpoint Depression Visibility Wind Speed Wind Dir Waves Ship Positions

Sea Breeze

Last reported at 2017-Oct-18 06:24 UTC. Time now 2017-Oct-18 16:33 UTC.
Position N 35°25' E 139°38'.

Length 35 m; draft 3.1 m.

Type: Tug. MMSI: 431009818.

Date/timePositionNaut miles runAvg speedWind from/ knotsBaromVisibWave heightAir tempDewpointWater temp
2017-Oct-18 06:24N 35°25' E 139°38'1 3.4
2017-Oct-18 06:00N 35°24' E 139°40'1 2.4
2017-Oct-18 05:30N 35°25' E 139°38'0 0.0
2017-Oct-18 05:01N 35°25' E 139°38'1 2.5
2017-Oct-18 04:31N 35°24' E 139°40'1 2.9
2017-Oct-18 04:00N 35°23' E 139°41'3 0.6
2017-Oct-17 23:27N 35°24' E 139°38'0 0.2
2017-Oct-17 21:29N 35°25' E 139°38'0 0.0
2017-Oct-17 21:00N 35°25' E 139°38'0 0.0
2017-Oct-17 13:28N 35°25' E 139°38'0 0.4
2017-Oct-17 13:00N 35°25' E 139°39'0 0.1
2017-Oct-17 12:30N 35°25' E 139°39'0 0.3
2017-Oct-17 12:00N 35°25' E 139°38'0 0.0
2017-Oct-17 11:30N 35°25' E 139°38'0 0.0
2017-Oct-17 06:58N 35°25' E 139°38'0 0.7
2017-Oct-17 06:30N 35°24' E 139°38'0 0.0
2017-Oct-17 00:40N 35°24' E 139°38'1 7.3
2017-Oct-17 00:31N 35°24' E 139°39'1 1.6
2017-Oct-17 00:00N 35°25' E 139°39'2 3.6
2017-Oct-16 23:30N 35°24' E 139°40'1 1.9
2017-Oct-16 23:00N 35°23' E 139°41'3 1.8
2017-Oct-16 21:27N 35°25' E 139°38'0 0.0
2017-Oct-16 21:01N 35°25' E 139°38'0 0.0
2017-Oct-16 06:56N 35°25' E 139°38'0 0.0
2017-Oct-15 23:16N 35°24' E 139°38'1 4.9
2017-Oct-15 23:01N 35°24' E 139°40'1 0.7
2017-Oct-15 21:29N 35°25' E 139°38'0 0.0
2017-Oct-15 21:01N 35°25' E 139°38'0 0.0
2017-Oct-15 06:53N 35°25' E 139°38'0 0.2
2017-Oct-15 06:31N 35°25' E 139°38'0 0.0
2017-Oct-15 02:41N 35°25' E 139°38'1 5.5
2017-Oct-15 02:31N 35°24' E 139°39'1 1.2
2017-Oct-15 02:00N 35°25' E 139°39'0 0.1
2017-Oct-15 01:31N 35°25' E 139°39'0 0.1
2017-Oct-14 21:29N 35°25' E 139°38'0 0.0
2017-Oct-14 21:00N 35°25' E 139°38'0 0.0
2017-Oct-14 06:56N 35°25' E 139°38'0 0.7
2017-Oct-14 06:30N 35°24' E 139°38'0 0.0
2017-Oct-14 01:00N 35°24' E 139°38'0 0.1
2017-Oct-13 21:30N 35°25' E 139°38'0 0.0
2017-Oct-13 21:00N 35°25' E 139°38'0 0.0
2017-Oct-13 09:50N 35°25' E 139°38'0 0.3
2017-Oct-13 09:30N 35°25' E 139°38'0 0.4
2017-Oct-13 09:00N 35°25' E 139°39'1 0.1
2017-Oct-13 03:31N 35°24' E 139°38'0 0.0
2017-Oct-13 03:30N 35°24' E 139°38'1 1.6
2017-Oct-13 03:00N 35°25' E 139°39'0 0.0
2017-Oct-13 02:30N 35°25' E 139°39'0 0.1
2017-Oct-13 02:01N 35°25' E 139°39'0 0.1
2017-Oct-13 01:31N 35°25' E 139°39'1 2.2
2017-Oct-13 01:00N 35°24' E 139°40'1 2.9
2017-Oct-13 00:30N 35°23' E 139°41'0 0.7
2017-Oct-13 00:00N 35°23' E 139°41'3 5.5
2017-Oct-12 23:30N 35°24' E 139°38'0 0.6
2017-Oct-12 23:00N 35°25' E 139°38'0 0.0
2017-Oct-12 21:27N 35°25' E 139°38'0 0.0
2017-Oct-12 21:00N 35°25' E 139°38'0 0.0
2017-Oct-12 06:54N 35°25' E 139°38'0 0.0
2017-Oct-11 23:18N 35°24' E 139°38'1 3.6
2017-Oct-11 23:00N 35°25' E 139°39'1 0.5
2017-Oct-11 21:28N 35°25' E 139°38'0 0.0
2017-Oct-11 21:00N 35°25' E 139°38'0 0.0
2017-Oct-10 23:05N 35°24' E 139°38'0 0.2
2017-Oct-10 21:26N 35°25' E 139°38'0 0.0
2017-Oct-10 06:56N 35°25' E 139°38'0 0.7
2017-Oct-10 06:30N 35°24' E 139°38'0 0.0
2017-Oct-09 23:27N 35°24' E 139°38'1 2.4
2017-Oct-09 23:00N 35°25' E 139°39'1 0.5
2017-Oct-09 21:29N 35°25' E 139°38'0 0.0
2017-Oct-09 06:56N 35°25' E 139°39'0 0.0
2017-Oct-09 02:27N 35°25' E 139°38'0 1.0
2017-Oct-09 01:59N 35°25' E 139°39'0 0.3
2017-Oct-09 00:27N 35°24' E 139°39'2 4.0
2017-Oct-08 23:57N 35°23' E 139°42'1 1.5
2017-Oct-08 23:22N 35°23' E 139°41'3 1.4
2017-Oct-08 21:28N 35°25' E 139°38'0 0.0
2017-Oct-08 21:00N 35°25' E 139°38'0 0.0
2017-Oct-08 07:14N 35°25' E 139°38'1 4.3
2017-Oct-08 07:01N 35°24' E 139°40'0 0.7
2017-Oct-08 06:30N 35°25' E 139°39'  

Dump ship's entire track history